createdAt,value
2022-09-17T00:02:14.722Z,10.98
2022-09-17T00:04:44.453Z,14.43
2022-09-17T00:07:13.901Z,13.15
2022-09-17T00:09:44.144Z,12.20
2022-09-17T00:12:13.862Z,10.60
2022-09-17T00:14:43.593Z,18.33
2022-09-17T00:17:13.348Z,9.60
2022-09-17T00:19:42.786Z,9.08
2022-09-17T00:22:13.076Z,12.40
2022-09-17T00:24:42.968Z,16.03
2022-09-17T00:27:12.800Z,13.60
2022-09-17T00:29:42.576Z,20.20
2022-09-17T00:32:12.605Z,12.20
2022-09-17T00:34:43.237Z,14.10
2022-09-17T00:37:13.294Z,10.08
2022-09-17T00:39:43.131Z,15.37
2022-09-17T00:42:17.276Z,11.45
2022-09-17T00:44:52.855Z,15.83
2022-09-17T00:47:25.545Z,14.20
2022-09-17T00:49:58.348Z,8.23
2022-09-17T00:52:31.624Z,13.23
2022-09-17T00:55:10.586Z,15.90
2022-09-17T00:57:42.190Z,9.27
2022-09-17T01:00:15.718Z,15.45
2022-09-17T01:02:45.949Z,12.75
2022-09-17T01:05:16.138Z,16.77
2022-09-17T01:08:00.732Z,8.23
2022-09-17T01:10:49.843Z,13.35
2022-09-17T01:13:22.784Z,12.33
2022-09-17T01:16:10.373Z,12.57
2022-09-17T01:18:55.089Z,11.17
2022-09-17T01:21:53.166Z,15.93
2022-09-17T01:24:31.504Z,15.45
2022-09-17T01:27:19.384Z,12.98
2022-09-17T01:30:06.502Z,15.70
2022-09-17T01:32:47.939Z,11.18
2022-09-17T01:35:20.815Z,13.72
2022-09-17T01:38:18.984Z,11.17
2022-09-17T01:40:57.311Z,12.30
2022-09-17T01:43:32.820Z,9.00
2022-09-17T01:46:20.459Z,12.63
2022-09-17T01:48:53.407Z,8.40
2022-09-17T01:51:26.160Z,14.90
2022-09-17T01:53:59.040Z,14.53
2022-09-17T01:56:34.548Z,9.93
2022-09-17T01:59:13.563Z,9.40
2022-09-17T02:01:45.244Z,10.93
2022-09-17T02:04:20.535Z,11.67
2022-09-17T02:06:53.608Z,8.58
2022-09-17T02:09:26.672Z,11.55
2022-09-17T02:11:59.635Z,11.13
2022-09-17T02:14:32.405Z,8.47
2022-09-17T02:17:07.985Z,12.93
2022-09-17T02:19:39.301Z,10.10
2022-09-17T02:22:18.982Z,8.20
2022-09-17T02:25:13.445Z,17.53
2022-09-17T02:27:57.688Z,11.30
2022-09-17T02:30:27.686Z,12.80
2022-09-17T02:32:57.568Z,13.27
2022-09-17T02:35:27.442Z,13.67
2022-09-17T02:37:57.190Z,11.53
2022-09-17T02:40:30.400Z,6.12
2022-09-17T02:43:37.956Z,12.73
2022-09-17T02:46:30.180Z,11.15
2022-09-17T02:49:11.509Z,9.47
2022-09-17T02:52:12.271Z,8.80
2022-09-17T02:55:23.260Z,8.17
2022-09-17T02:58:10.960Z,13.03
2022-09-17T03:00:41.779Z,13.32
2022-09-17T03:03:17.612Z,9.87
2022-09-17T03:05:48.489Z,18.33
2022-09-17T03:08:20.315Z,15.67
2022-09-17T03:10:50.261Z,8.25
2022-09-17T03:13:19.997Z,10.20
2022-09-17T03:15:49.867Z,8.30
2022-09-17T03:18:19.614Z,9.63
2022-09-17T03:20:49.357Z,11.20
2022-09-17T03:23:19.098Z,9.90
2022-09-17T03:25:49.549Z,7.33
2022-09-17T03:28:19.145Z,11.40
2022-09-17T03:30:48.746Z,13.20
2022-09-17T03:33:18.562Z,8.27
2022-09-17T03:35:48.382Z,11.87
2022-09-17T03:38:18.517Z,11.97
2022-09-17T03:40:53.992Z,16.67
2022-09-17T03:43:23.457Z,8.33
2022-09-17T03:45:53.542Z,7.58
2022-09-17T03:48:23.792Z,13.53
2022-09-17T03:50:53.238Z,10.30
2022-09-17T03:53:22.952Z,7.40
2022-09-17T03:55:52.711Z,9.73
2022-09-17T03:58:22.178Z,10.77
2022-09-17T04:00:56.669Z,15.68
2022-09-17T04:03:28.939Z,7.50
2022-09-17T04:05:58.472Z,8.60
2022-09-17T04:08:27.968Z,11.63
2022-09-17T04:10:57.780Z,8.53
2022-09-17T04:13:27.856Z,7.90
2022-09-17T04:15:57.709Z,12.43
2022-09-17T04:18:27.512Z,14.33
2022-09-17T04:20:57.315Z,13.07
2022-09-17T04:23:27.369Z,10.40
2022-09-17T04:25:57.280Z,13.40
2022-09-17T04:28:26.796Z,10.28
2022-09-17T04:30:57.619Z,12.00
2022-09-17T04:33:27.640Z,7.65
2022-09-17T04:35:57.727Z,11.28
2022-09-17T04:38:27.531Z,9.95
2022-09-17T04:40:57.365Z,10.77
2022-09-17T04:43:27.288Z,12.43
2022-09-17T04:45:57.016Z,7.23
2022-09-17T04:48:26.448Z,14.10
2022-09-17T04:50:55.935Z,11.70
2022-09-17T04:53:26.117Z,14.20
2022-09-17T04:55:55.858Z,6.63
2022-09-17T04:58:25.582Z,9.73
2022-09-17T05:00:55.446Z,13.70
2022-09-17T05:03:25.204Z,8.87
2022-09-17T05:05:54.973Z,13.97
2022-09-17T05:08:25.279Z,9.93
2022-09-17T05:10:55.325Z,13.22
2022-09-17T05:13:25.054Z,8.07
2022-09-17T05:15:59.194Z,7.60
2022-09-17T05:18:29.024Z,7.47
2022-09-17T05:20:58.776Z,10.37
2022-09-17T05:23:29.304Z,12.27
2022-09-17T05:26:02.536Z,13.65
2022-09-17T05:28:32.256Z,10.10
2022-09-17T05:31:02.918Z,8.60
2022-09-17T05:33:33.043Z,7.07
2022-09-17T05:36:03.031Z,6.33
2022-09-17T05:38:32.764Z,6.87
2022-09-17T05:41:07.623Z,10.20
2022-09-17T05:43:37.661Z,10.03
2022-09-17T05:46:08.491Z,8.73
2022-09-17T05:48:38.668Z,10.58
2022-09-17T05:51:08.389Z,7.10
2022-09-17T05:53:38.219Z,11.03
2022-09-17T05:56:09.876Z,11.85
2022-09-17T05:58:39.702Z,10.60
2022-09-17T06:01:11.117Z,11.47
2022-09-17T06:03:40.894Z,9.47
2022-09-17T06:06:11.290Z,12.13
2022-09-17T06:08:41.053Z,11.90
2022-09-17T06:11:11.112Z,8.87
2022-09-17T06:13:42.482Z,4.23
2022-09-17T06:16:12.194Z,7.33
2022-09-17T06:18:41.989Z,14.33
2022-09-17T06:21:12.077Z,13.32
2022-09-17T06:23:43.388Z,9.53
2022-09-17T06:26:13.175Z,9.33
2022-09-17T06:28:43.085Z,10.17
2022-09-17T06:31:15.028Z,6.60
2022-09-17T06:33:44.812Z,6.67
2022-09-17T06:36:14.914Z,4.07
2022-09-17T06:38:44.674Z,10.03
2022-09-17T06:41:14.979Z,7.77
2022-09-17T06:43:45.058Z,3.77
2022-09-17T06:46:15.050Z,11.33
2022-09-17T06:48:44.795Z,8.00
2022-09-17T06:51:14.978Z,5.80
2022-09-17T06:53:44.778Z,7.33
2022-09-17T06:56:14.514Z,7.37
2022-09-17T06:58:44.335Z,6.60
2022-09-17T07:01:15.177Z,4.97
2022-09-17T07:03:45.026Z,3.37
2022-09-17T07:06:14.790Z,14.07
2022-09-17T07:08:44.906Z,4.57
2022-09-17T07:11:19.309Z,4.93
2022-09-17T07:13:49.023Z,9.17
2022-09-17T07:16:19.682Z,4.83
2022-09-17T07:18:49.421Z,4.70
2022-09-17T07:21:19.423Z,3.70
2022-09-17T07:23:49.160Z,6.67
2022-09-17T07:26:18.985Z,3.83
2022-09-17T07:28:48.776Z,5.80
2022-09-17T07:31:18.541Z,9.80
2022-09-17T07:33:48.539Z,4.67
2022-09-17T07:36:18.723Z,10.17
2022-09-17T07:38:48.570Z,3.83
2022-09-17T07:41:19.128Z,4.80
2022-09-17T07:43:48.940Z,4.37
2022-09-17T07:46:20.726Z,4.65
2022-09-17T07:48:51.703Z,12.43
2022-09-17T07:51:24.468Z,5.80
2022-09-17T07:53:55.897Z,4.17
2022-09-17T07:56:26.929Z,3.90
2022-09-17T07:58:57.176Z,4.47
2022-09-17T08:01:27.332Z,6.33
2022-09-17T08:03:57.072Z,4.97
2022-09-17T08:06:30.993Z,6.90
2022-09-17T08:09:01.162Z,6.90
2022-09-17T08:11:56.158Z,7.33
2022-09-17T08:14:04.815Z,6.75
2022-09-17T08:16:34.617Z,5.20
2022-09-17T08:19:04.447Z,3.10
2022-09-17T08:21:34.177Z,2.90
2022-09-17T08:24:04.074Z,5.83
2022-09-17T08:26:33.842Z,6.83
2022-09-17T08:29:03.623Z,7.23
2022-09-17T08:31:33.656Z,8.33
2022-09-17T08:34:05.227Z,9.55
2022-09-17T08:36:34.972Z,9.00
2022-09-17T08:39:04.825Z,5.67
2022-09-17T08:41:37.897Z,7.30
2022-09-17T08:44:22.887Z,7.08
2022-09-17T08:47:01.790Z,10.03
2022-09-17T08:49:34.851Z,6.33
2022-09-17T08:52:41.707Z,5.60
2022-09-17T08:55:17.196Z,4.80
2022-09-17T08:57:55.604Z,4.83
2022-09-17T09:00:26.586Z,4.47
2022-09-17T09:03:08.661Z,4.55
2022-09-17T09:05:56.285Z,6.30
2022-09-17T09:08:37.758Z,4.92
2022-09-17T09:11:10.028Z,6.03
2022-09-17T09:13:45.855Z,3.57
2022-09-17T09:16:18.844Z,6.47
2022-09-17T09:18:51.457Z,4.17
2022-09-17T09:21:39.052Z,6.00
2022-09-17T09:24:25.995Z,6.55
2022-09-17T09:27:13.136Z,3.63
2022-09-17T09:30:02.657Z,3.57
2022-09-17T09:33:06.675Z,4.25
2022-09-17T09:35:39.456Z,7.77
2022-09-17T09:38:16.832Z,5.28
2022-09-17T09:40:49.353Z,7.60
2022-09-17T09:43:22.198Z,6.10
2022-09-17T09:45:57.796Z,5.70
2022-09-17T09:48:38.717Z,1.93
2022-09-17T09:51:13.992Z,2.33
2022-09-17T09:54:02.716Z,4.17
2022-09-17T09:56:41.325Z,2.25
2022-09-17T09:59:13.509Z,1.80
2022-09-17T10:01:45.063Z,2.83
2022-09-17T10:04:23.644Z,6.80
2022-09-17T10:07:05.696Z,5.80
2022-09-17T10:09:37.641Z,4.67
2022-09-17T10:12:14.859Z,2.47
2022-09-17T10:14:47.259Z,5.63
2022-09-17T10:17:23.003Z,2.20
2022-09-17T10:20:11.917Z,2.60
2022-09-17T10:22:48.627Z,3.07
2022-09-17T10:25:36.095Z,2.35
2022-09-17T10:28:11.106Z,3.27
2022-09-17T10:30:43.529Z,4.13
2022-09-17T10:33:18.881Z,2.57
2022-09-17T10:36:06.263Z,4.60
2022-09-17T10:38:41.057Z,4.10
2022-09-17T10:41:13.833Z,4.00
2022-09-17T10:43:43.919Z,4.03
2022-09-17T10:46:27.850Z,5.27
2022-09-17T10:49:11.851Z,6.93
2022-09-17T10:51:42.093Z,3.40
2022-09-17T10:54:17.965Z,3.95
2022-09-17T10:56:50.443Z,5.33
2022-09-17T10:59:39.816Z,3.08
2022-09-17T11:02:26.178Z,2.62
2022-09-17T11:05:01.522Z,5.90
2022-09-17T11:07:46.338Z,6.60
2022-09-17T11:10:24.716Z,3.03
2022-09-17T11:13:08.715Z,5.13
2022-09-17T11:15:52.192Z,4.57
2022-09-17T11:18:33.550Z,3.83
2022-09-17T11:21:21.324Z,3.27
2022-09-17T11:24:22.491Z,6.33
2022-09-17T11:27:10.155Z,5.15
2022-09-17T11:30:11.541Z,6.27
2022-09-17T11:32:52.811Z,6.55
2022-09-17T11:35:25.590Z,4.47
2022-09-17T11:38:00.069Z,7.80
2022-09-17T11:40:47.498Z,3.10
2022-09-17T11:43:37.850Z,3.13
2022-09-17T11:46:12.580Z,5.28
2022-09-17T11:49:08.890Z,8.53
2022-09-17T11:51:44.780Z,12.00
2022-09-17T11:54:25.720Z,8.07
2022-09-17T11:57:16.303Z,8.10
2022-09-17T11:59:51.855Z,8.40
2022-09-17T12:02:56.074Z,5.30
2022-09-17T12:05:31.170Z,5.33
2022-09-17T12:08:03.949Z,3.47
2022-09-17T12:10:36.700Z,4.63
2022-09-17T12:13:12.163Z,7.70
2022-09-17T12:15:48.698Z,7.53
2022-09-17T12:18:34.770Z,8.97
2022-09-17T12:21:08.129Z,10.10
2022-09-17T12:23:43.716Z,5.57
2022-09-17T12:26:24.829Z,6.30
2022-09-17T12:29:03.412Z,4.50
2022-09-17T12:31:58.649Z,5.90
2022-09-17T12:34:34.002Z,5.25
2022-09-17T12:37:24.011Z,3.43
2022-09-17T12:39:56.870Z,7.77
2022-09-17T12:42:48.022Z,5.75
2022-09-17T12:45:32.420Z,5.57
2022-09-17T12:48:36.376Z,5.30
2022-09-17T12:51:19.477Z,10.10
2022-09-17T12:54:07.741Z,5.80
2022-09-17T12:57:10.085Z,10.60
2022-09-17T12:59:42.860Z,7.80
2022-09-17T13:02:18.246Z,3.90
2022-09-17T13:05:01.011Z,10.47
2022-09-17T13:07:37.253Z,5.83
2022-09-17T13:13:09.616Z,4.28
2022-09-17T13:15:54.227Z,4.53
2022-09-17T13:18:41.729Z,1.95
2022-09-17T13:21:16.655Z,4.53
2022-09-17T13:23:49.615Z,7.23
2022-09-17T13:26:21.808Z,4.70
2022-09-17T13:28:53.161Z,3.97
2022-09-17T13:31:44.683Z,3.95
2022-09-17T13:34:24.803Z,3.45
2022-09-17T13:36:56.340Z,5.90
2022-09-17T13:39:46.637Z,6.37
2022-09-17T13:42:35.406Z,4.30
2022-09-17T13:45:15.049Z,5.84
2022-09-17T13:48:06.003Z,9.30
2022-09-17T13:50:44.103Z,4.13
2022-09-17T13:53:21.941Z,10.33
2022-09-17T13:55:54.730Z,8.07
2022-09-17T13:58:30.267Z,6.28
2022-09-17T14:01:08.169Z,6.37
2022-09-17T14:03:48.384Z,2.40
2022-09-17T14:06:26.716Z,10.20
2022-09-17T14:08:57.810Z,6.00
2022-09-17T14:11:30.592Z,7.33
2022-09-17T14:14:06.273Z,8.35
2022-09-17T14:16:47.471Z,7.20
2022-09-17T14:19:23.037Z,5.67
2022-09-17T14:22:04.236Z,8.73
2022-09-17T14:24:39.576Z,7.50
2022-09-17T14:27:12.359Z,5.23
2022-09-17T14:29:59.727Z,9.33
2022-09-17T14:32:33.092Z,7.80
2022-09-17T14:35:06.140Z,3.80
2022-09-17T14:37:36.281Z,7.30
2022-09-17T14:40:14.089Z,4.30
2022-09-17T14:42:45.014Z,7.50
2022-09-17T14:45:20.687Z,6.65
2022-09-17T14:47:50.404Z,6.57
2022-09-17T14:50:22.362Z,15.47
2022-09-17T14:52:54.851Z,4.40
2022-09-17T14:55:26.842Z,11.38
2022-09-17T14:58:00.897Z,8.70
2022-09-17T15:00:33.990Z,5.10
2022-09-17T15:03:03.927Z,9.10
2022-09-17T15:05:42.657Z,7.27
2022-09-17T15:08:21.955Z,6.40
2022-09-17T15:10:54.766Z,7.73
2022-09-17T15:13:30.526Z,5.87
2022-09-17T15:16:11.157Z,5.65
2022-09-17T15:18:46.640Z,9.67
2022-09-17T15:24:35.870Z,9.35
2022-09-17T15:27:18.475Z,8.03
2022-09-17T15:29:51.152Z,6.00
2022-09-17T15:32:20.914Z,12.50
2022-09-17T15:35:17.269Z,8.08
2022-09-17T15:40:29.543Z,11.30
2022-09-17T15:43:20.015Z,6.77
2022-09-17T15:45:49.789Z,19.60
2022-09-17T15:48:38.075Z,11.55
2022-09-17T15:51:11.158Z,10.50
2022-09-17T15:53:42.414Z,10.83
2022-09-17T15:56:17.733Z,9.43
2022-09-17T15:58:50.498Z,4.27
2022-09-17T16:01:23.363Z,7.07
2022-09-17T16:04:04.898Z,8.97
2022-09-17T16:06:37.361Z,11.07
2022-09-17T16:09:10.170Z,7.60
2022-09-17T16:11:41.521Z,11.47
2022-09-17T16:14:11.712Z,10.12
2022-09-17T16:16:41.510Z,9.40
2022-09-17T16:19:11.331Z,17.40
2022-09-17T16:21:41.080Z,13.27
2022-09-17T16:24:11.241Z,7.35
2022-09-17T16:26:41.789Z,8.33
2022-09-17T16:29:17.077Z,9.60
2022-09-17T16:31:46.874Z,9.37
2022-09-17T16:34:16.701Z,10.80
2022-09-17T16:36:46.158Z,6.70
2022-09-17T16:39:16.195Z,5.70
2022-09-17T16:41:45.935Z,6.37
2022-09-17T16:44:15.677Z,7.03
2022-09-17T16:46:45.217Z,4.25
2022-09-17T16:49:16.631Z,9.10
2022-09-17T16:51:46.399Z,4.67
2022-09-17T16:54:16.075Z,4.27
2022-09-17T16:56:45.883Z,9.13
2022-09-17T16:59:15.830Z,6.30
2022-09-17T17:01:45.567Z,9.23
2022-09-17T17:04:14.988Z,12.27
2022-09-17T17:06:44.713Z,10.63
2022-09-17T17:09:14.516Z,7.90
2022-09-17T17:11:44.710Z,9.20
2022-09-17T17:14:15.057Z,7.15
2022-09-17T17:16:45.445Z,8.17
2022-09-17T17:19:15.174Z,15.13
2022-09-17T17:21:47.301Z,10.63
2022-09-17T17:24:16.940Z,7.20
2022-09-17T17:26:48.121Z,3.80
2022-09-17T17:34:35.000Z,11.22
2022-09-17T17:37:04.474Z,7.00
2022-09-17T17:39:34.280Z,3.27
2022-09-17T17:42:06.858Z,3.05
2022-09-17T17:44:36.578Z,3.70
2022-09-17T17:47:06.721Z,3.10
2022-09-17T17:49:36.739Z,2.12
2022-09-17T17:52:08.155Z,4.60
2022-09-17T17:54:37.876Z,3.23
2022-09-17T17:57:07.643Z,1.17
2022-09-17T17:59:37.063Z,2.37
2022-09-17T18:02:10.344Z,3.26
2022-09-17T18:04:40.073Z,3.63
2022-09-17T18:07:09.803Z,1.97
2022-09-17T18:09:39.715Z,2.00
2022-09-17T18:12:11.198Z,6.67
2022-09-17T18:14:40.925Z,2.17
2022-09-17T18:17:10.677Z,3.27
2022-09-17T18:19:40.683Z,3.30
2022-09-17T18:22:11.264Z,3.52
2022-09-17T18:24:41.011Z,1.90
2022-09-17T18:27:10.803Z,3.17
2022-09-17T18:29:40.552Z,2.17
2022-09-17T18:32:11.400Z,1.60
2022-09-17T18:34:42.608Z,3.60
2022-09-17T18:37:12.062Z,4.55
2022-09-17T18:39:58.109Z,2.33
2022-09-17T18:42:13.451Z,5.60
2022-09-17T18:44:43.176Z,3.30
2022-09-17T18:47:12.892Z,0.80
2022-09-17T18:49:42.919Z,3.02
2022-09-17T18:52:12.654Z,4.95
2022-09-17T18:54:42.757Z,1.77
2022-09-17T18:57:13.169Z,5.37
2022-09-17T18:59:43.016Z,5.57
2022-09-17T19:02:13.678Z,3.83
2022-09-17T19:04:43.702Z,2.75
2022-09-17T19:07:13.893Z,2.25
2022-09-17T19:09:43.660Z,4.70
2022-09-17T19:12:13.387Z,1.63
2022-09-17T19:14:43.133Z,4.17
2022-09-17T19:17:12.639Z,2.15
2022-09-17T19:19:42.669Z,3.45
2022-09-17T19:22:12.395Z,3.02
2022-09-17T19:24:42.102Z,4.10
2022-09-17T19:27:11.901Z,2.60
2022-09-17T19:29:41.630Z,1.73
2022-09-17T19:32:11.547Z,3.25
2022-09-17T19:34:42.566Z,2.10
2022-09-17T19:37:12.476Z,2.63
2022-09-17T19:39:42.214Z,2.70
2022-09-17T19:42:12.338Z,1.55
2022-09-17T19:44:42.073Z,4.43
2022-09-17T19:47:11.790Z,4.20
2022-09-17T19:49:41.547Z,3.60
2022-09-17T19:52:11.548Z,3.75
2022-09-17T19:54:41.322Z,5.70
2022-09-17T19:57:11.100Z,3.43
2022-09-17T19:59:40.825Z,2.87
2022-09-17T20:02:14.457Z,3.62
2022-09-17T20:04:44.220Z,2.07
2022-09-17T20:07:13.960Z,3.60
2022-09-17T20:09:44.097Z,6.27
2022-09-17T20:12:13.506Z,2.70
2022-09-17T20:14:43.376Z,2.97
2022-09-17T20:17:13.791Z,3.83
2022-09-17T20:19:43.481Z,2.67
2022-09-17T20:22:13.233Z,4.72
2022-09-17T20:24:45.588Z,6.23
2022-09-17T20:27:14.782Z,7.45
2022-09-17T20:29:44.269Z,5.50
2022-09-17T20:32:14.359Z,3.83
2022-09-17T20:34:44.077Z,4.60
2022-09-17T20:37:14.070Z,4.37
2022-09-17T20:39:44.817Z,2.53
2022-09-17T20:42:14.353Z,0.80
2022-09-17T20:44:44.095Z,3.23
2022-09-17T20:47:14.143Z,4.07
2022-09-17T20:49:43.870Z,3.23
2022-09-17T20:52:16.802Z,3.70
2022-09-17T20:54:45.043Z,7.30
2022-09-17T20:57:14.942Z,4.33
2022-09-17T20:59:55.378Z,7.33
2022-09-17T21:02:25.427Z,8.33
2022-09-17T21:04:55.138Z,6.23
2022-09-17T21:07:24.904Z,11.07
2022-09-17T21:09:54.638Z,6.43
2022-09-17T21:12:27.615Z,2.58
2022-09-17T21:14:56.192Z,11.30
2022-09-17T21:17:25.936Z,6.53
2022-09-17T21:19:55.697Z,11.77
2022-09-17T21:22:25.447Z,4.53
2022-09-17T21:24:55.206Z,7.27
2022-09-17T21:27:24.961Z,3.47
2022-09-17T21:29:54.720Z,12.53
2022-09-17T21:32:24.568Z,5.70
2022-09-17T21:34:54.318Z,6.87
2022-09-17T21:37:27.181Z,8.43
2022-09-17T21:39:56.933Z,10.77
2022-09-17T21:42:26.744Z,10.87
2022-09-17T21:44:56.516Z,11.47
2022-09-17T21:47:26.542Z,8.65
2022-09-17T21:49:56.584Z,9.65
2022-09-17T21:52:26.323Z,12.63
2022-09-17T21:54:56.056Z,9.23
2022-09-17T21:57:25.805Z,11.43
2022-09-17T21:59:55.531Z,8.73
2022-09-17T22:02:27.170Z,10.00
2022-09-17T22:04:56.966Z,10.50
2022-09-17T22:07:26.779Z,9.13
2022-09-17T22:09:56.517Z,14.13
2022-09-17T22:12:26.384Z,10.82
2022-09-17T22:14:56.247Z,11.13
2022-09-17T22:17:26.024Z,11.80
2022-09-17T22:19:55.784Z,6.13
2022-09-17T22:22:25.441Z,4.90
2022-09-17T22:24:55.644Z,9.93
2022-09-17T22:27:25.456Z,8.60
2022-09-17T22:29:55.209Z,12.97
2022-09-17T22:32:24.642Z,8.37
2022-09-17T22:34:54.937Z,7.83
2022-09-17T22:37:24.664Z,4.60
2022-09-17T22:39:54.902Z,6.33
2022-09-17T22:42:24.686Z,7.62
2022-09-17T22:44:54.707Z,7.05
2022-09-17T22:47:24.441Z,8.23
2022-09-17T22:49:54.189Z,7.03
2022-09-17T22:52:24.148Z,7.25
2022-09-17T22:54:53.883Z,8.00
2022-09-17T22:57:23.655Z,11.77
2022-09-17T22:59:53.683Z,6.67
2022-09-17T23:02:23.214Z,13.97
2022-09-17T23:04:52.947Z,7.17
2022-09-17T23:07:22.679Z,9.97
2022-09-17T23:09:52.480Z,9.83
2022-09-17T23:12:21.916Z,9.50
2022-09-17T23:14:52.152Z,11.17
2022-09-17T23:17:24.932Z,9.57
2022-09-17T23:19:53.399Z,7.00
2022-09-17T23:22:23.102Z,8.60
2022-09-17T23:24:52.839Z,8.13
2022-09-17T23:27:22.919Z,11.88
2022-09-17T23:29:52.674Z,11.03
2022-09-17T23:32:22.106Z,10.23
2022-09-17T23:34:53.520Z,9.90
2022-09-17T23:37:23.541Z,7.37
2022-09-17T23:39:53.658Z,10.93
2022-09-17T23:42:23.392Z,5.75
2022-09-17T23:44:53.125Z,3.83
2022-09-17T23:47:22.938Z,10.40
2022-09-17T23:49:53.143Z,9.33
2022-09-17T23:52:23.088Z,8.43
2022-09-17T23:54:56.464Z,8.77
2022-09-17T23:57:25.492Z,6.05
2022-09-17T23:59:55.506Z,7.03
